sensor_id;sensor_type;location;lat;lon;timestamp;P1;durP1;ratioP1;P2;durP2;ratioP2
8279;SDS011;8335;42.646;23.380;2023-06-26T00:01:33;25.33;;;18.13;;
8279;SDS011;8335;42.646;23.380;2023-06-26T00:04:00;26.05;;;18.30;;
8279;SDS011;8335;42.646;23.380;2023-06-26T00:06:27;28.23;;;19.00;;
8279;SDS011;8335;42.646;23.380;2023-06-26T00:08:55;24.38;;;18.55;;
8279;SDS011;8335;42.646;23.380;2023-06-26T00:11:23;25.90;;;18.13;;
8279;SDS011;8335;42.646;23.380;2023-06-26T00:13:54;25.98;;;18.92;;
8279;SDS011;8335;42.646;23.380;2023-06-26T00:16:20;26.08;;;19.08;;
8279;SDS011;8335;42.646;23.380;2023-06-26T00:18:47;24.20;;;17.95;;
8279;SDS011;8335;42.646;23.380;2023-06-26T00:21:14;25.17;;;17.35;;
8279;SDS011;8335;42.646;23.380;2023-06-26T00:23:41;23.30;;;17.50;;
8279;SDS011;8335;42.646;23.380;2023-06-26T00:26:07;23.40;;;17.35;;
8279;SDS011;8335;42.646;23.380;2023-06-26T00:28:35;26.00;;;17.20;;
8279;SDS011;8335;42.646;23.380;2023-06-26T00:31:03;20.50;;;16.45;;
8279;SDS011;8335;42.646;23.380;2023-06-26T00:33:30;21.80;;;16.23;;
8279;SDS011;8335;42.646;23.380;2023-06-26T00:35:57;21.73;;;16.75;;
8279;SDS011;8335;42.646;23.380;2023-06-26T00:38:23;18.70;;;16.05;;
8279;SDS011;8335;42.646;23.380;2023-06-26T00:40:50;20.40;;;16.35;;
8279;SDS011;8335;42.646;23.380;2023-06-26T00:43:17;22.17;;;15.82;;
8279;SDS011;8335;42.646;23.380;2023-06-26T00:45:44;20.02;;;15.88;;
8279;SDS011;8335;42.646;23.380;2023-06-26T00:48:12;19.63;;;15.90;;
8279;SDS011;8335;42.646;23.380;2023-06-26T00:50:38;20.25;;;15.65;;
8279;SDS011;8335;42.646;23.380;2023-06-26T00:53:06;19.73;;;16.15;;
8279;SDS011;8335;42.646;23.380;2023-06-26T00:55:35;18.67;;;14.80;;
8279;SDS011;8335;42.646;23.380;2023-06-26T00:58:02;21.55;;;15.75;;
8279;SDS011;8335;42.646;23.380;2023-06-26T01:00:28;18.85;;;14.30;;
8279;SDS011;8335;42.646;23.380;2023-06-26T01:02:55;21.15;;;14.93;;
8279;SDS011;8335;42.646;23.380;2023-06-26T01:05:25;19.23;;;15.13;;
8279;SDS011;8335;42.646;23.380;2023-06-26T01:07:53;21.35;;;14.23;;
8279;SDS011;8335;42.646;23.380;2023-06-26T01:10:21;16.55;;;14.15;;
8279;SDS011;8335;42.646;23.380;2023-06-26T01:12:48;18.98;;;14.23;;
8279;SDS011;8335;42.646;23.380;2023-06-26T01:15:15;21.05;;;14.02;;
8279;SDS011;8335;42.646;23.380;2023-06-26T01:17:42;18.02;;;14.18;;
8279;SDS011;8335;42.646;23.380;2023-06-26T01:20:12;19.88;;;13.20;;
8279;SDS011;8335;42.646;23.380;2023-06-26T01:22:45;16.02;;;13.95;;
8279;SDS011;8335;42.646;23.380;2023-06-26T01:25:23;17.52;;;13.10;;
8279;SDS011;8335;42.646;23.380;2023-06-26T01:28:05;16.63;;;13.43;;
8279;SDS011;8335;42.646;23.380;2023-06-26T01:30:32;16.38;;;13.75;;
8279;SDS011;8335;42.646;23.380;2023-06-26T01:33:02;17.10;;;13.50;;
8279;SDS011;8335;42.646;23.380;2023-06-26T01:35:30;18.08;;;12.77;;
8279;SDS011;8335;42.646;23.380;2023-06-26T01:38:11;16.48;;;13.55;;
8279;SDS011;8335;42.646;23.380;2023-06-26T01:40:38;20.45;;;13.18;;
8279;SDS011;8335;42.646;23.380;2023-06-26T01:43:06;16.50;;;13.05;;
8279;SDS011;8335;42.646;23.380;2023-06-26T01:45:37;18.88;;;14.77;;
8279;SDS011;8335;42.646;23.380;2023-06-26T01:48:06;19.63;;;13.68;;
8279;SDS011;8335;42.646;23.380;2023-06-26T01:50:35;17.20;;;13.35;;
8279;SDS011;8335;42.646;23.380;2023-06-26T01:53:04;16.65;;;13.48;;
8279;SDS011;8335;42.646;23.380;2023-06-26T01:55:38;23.58;;;14.30;;
8279;SDS011;8335;42.646;23.380;2023-06-26T01:58:12;16.08;;;14.27;;
8279;SDS011;8335;42.646;23.380;2023-06-26T02:00:42;18.48;;;13.48;;
8279;SDS011;8335;42.646;23.380;2023-06-26T02:03:09;16.92;;;13.65;;
8279;SDS011;8335;42.646;23.380;2023-06-26T02:05:36;19.52;;;14.15;;
8279;SDS011;8335;42.646;23.380;2023-06-26T02:08:02;19.17;;;14.68;;
8279;SDS011;8335;42.646;23.380;2023-06-26T02:10:29;17.35;;;14.32;;
8279;SDS011;8335;42.646;23.380;2023-06-26T02:12:56;18.95;;;14.25;;
8279;SDS011;8335;42.646;23.380;2023-06-26T02:15:25;18.45;;;14.60;;
8279;SDS011;8335;42.646;23.380;2023-06-26T02:17:51;16.75;;;14.30;;
8279;SDS011;8335;42.646;23.380;2023-06-26T02:20:18;21.77;;;14.57;;
8279;SDS011;8335;42.646;23.380;2023-06-26T02:22:45;19.45;;;14.45;;
8279;SDS011;8335;42.646;23.380;2023-06-26T02:25:11;19.40;;;14.70;;
8279;SDS011;8335;42.646;23.380;2023-06-26T02:27:38;20.15;;;15.25;;
8279;SDS011;8335;42.646;23.380;2023-06-26T02:30:06;22.98;;;15.77;;
8279;SDS011;8335;42.646;23.380;2023-06-26T02:32:35;20.67;;;14.43;;
8279;SDS011;8335;42.646;23.380;2023-06-26T02:35:02;15.95;;;14.25;;
8279;SDS011;8335;42.646;23.380;2023-06-26T02:37:29;20.30;;;14.95;;
8279;SDS011;8335;42.646;23.380;2023-06-26T02:39:56;16.50;;;13.73;;
8279;SDS011;8335;42.646;23.380;2023-06-26T02:42:23;17.63;;;15.02;;
8279;SDS011;8335;42.646;23.380;2023-06-26T02:44:50;19.42;;;16.20;;
8279;SDS011;8335;42.646;23.380;2023-06-26T02:47:17;20.42;;;16.17;;
8279;SDS011;8335;42.646;23.380;2023-06-26T02:49:45;22.02;;;15.65;;
8279;SDS011;8335;42.646;23.380;2023-06-26T02:52:11;20.42;;;15.98;;
8279;SDS011;8335;42.646;23.380;2023-06-26T02:54:38;21.30;;;16.30;;
8279;SDS011;8335;42.646;23.380;2023-06-26T02:57:05;20.92;;;17.17;;
8279;SDS011;8335;42.646;23.380;2023-06-26T02:59:32;26.30;;;16.83;;
8279;SDS011;8335;42.646;23.380;2023-06-26T03:01:59;27.00;;;17.05;;
8279;SDS011;8335;42.646;23.380;2023-06-26T03:04:26;24.55;;;18.58;;
8279;SDS011;8335;42.646;23.380;2023-06-26T03:06:54;22.38;;;17.73;;
8279;SDS011;8335;42.646;23.380;2023-06-26T03:09:21;21.75;;;18.38;;
8279;SDS011;8335;42.646;23.380;2023-06-26T03:11:48;21.20;;;17.73;;
8279;SDS011;8335;42.646;23.380;2023-06-26T03:14:14;25.02;;;18.50;;
8279;SDS011;8335;42.646;23.380;2023-06-26T03:16:41;20.63;;;17.48;;
8279;SDS011;8335;42.646;23.380;2023-06-26T03:19:08;22.65;;;18.02;;
8279;SDS011;8335;42.646;23.380;2023-06-26T03:21:35;19.25;;;17.05;;
8279;SDS011;8335;42.646;23.380;2023-06-26T03:24:04;21.30;;;18.10;;
8279;SDS011;8335;42.646;23.380;2023-06-26T03:26:31;21.02;;;17.67;;
8279;SDS011;8335;42.646;23.380;2023-06-26T03:28:58;23.15;;;16.98;;
8279;SDS011;8335;42.646;23.380;2023-06-26T03:31:24;19.88;;;17.15;;
8279;SDS011;8335;42.646;23.380;2023-06-26T03:33:51;22.70;;;17.55;;
8279;SDS011;8335;42.646;23.380;2023-06-26T03:36:18;19.15;;;16.92;;
8279;SDS011;8335;42.646;23.380;2023-06-26T03:38:45;20.33;;;16.77;;
8279;SDS011;8335;42.646;23.380;2023-06-26T03:41:13;21.65;;;17.65;;
8279;SDS011;8335;42.646;23.380;2023-06-26T03:43:40;20.60;;;16.92;;
8279;SDS011;8335;42.646;23.380;2023-06-26T03:46:07;21.85;;;16.90;;
8279;SDS011;8335;42.646;23.380;2023-06-26T03:48:33;23.58;;;17.80;;
8279;SDS011;8335;42.646;23.380;2023-06-26T03:51:00;23.63;;;17.67;;
8279;SDS011;8335;42.646;23.380;2023-06-26T03:53:27;20.90;;;18.27;;
8279;SDS011;8335;42.646;23.380;2023-06-26T03:55:54;20.85;;;18.15;;
8279;SDS011;8335;42.646;23.380;2023-06-26T03:58:23;22.83;;;17.80;;
8279;SDS011;8335;42.646;23.380;2023-06-26T04:00:50;21.75;;;18.90;;
8279;SDS011;8335;42.646;23.380;2023-06-26T04:03:18;23.27;;;18.55;;
8279;SDS011;8335;42.646;23.380;2023-06-26T04:05:45;19.90;;;17.63;;
8279;SDS011;8335;42.646;23.380;2023-06-26T04:08:11;23.38;;;18.88;;
8279;SDS011;8335;42.646;23.380;2023-06-26T04:10:39;23.85;;;18.20;;
8279;SDS011;8335;42.646;23.380;2023-06-26T04:13:06;20.65;;;18.45;;
8279;SDS011;8335;42.646;23.380;2023-06-26T04:15:34;21.20;;;17.48;;
8279;SDS011;8335;42.646;23.380;2023-06-26T04:18:01;19.27;;;16.23;;
8279;SDS011;8335;42.646;23.380;2023-06-26T04:20:28;17.75;;;15.85;;
8279;SDS011;8335;42.646;23.380;2023-06-26T04:22:55;17.55;;;15.52;;
8279;SDS011;8335;42.646;23.380;2023-06-26T04:25:22;18.30;;;14.55;;
8279;SDS011;8335;42.646;23.380;2023-06-26T04:27:49;16.70;;;13.88;;
8279;SDS011;8335;42.646;23.380;2023-06-26T04:30:16;14.57;;;13.00;;
8279;SDS011;8335;42.646;23.380;2023-06-26T04:32:44;18.38;;;13.80;;
8279;SDS011;8335;42.646;23.380;2023-06-26T04:35:11;16.10;;;14.07;;
8279;SDS011;8335;42.646;23.380;2023-06-26T04:37:38;16.48;;;12.82;;
8279;SDS011;8335;42.646;23.380;2023-06-26T04:40:05;13.70;;;12.40;;
8279;SDS011;8335;42.646;23.380;2023-06-26T04:42:34;14.82;;;12.48;;
8279;SDS011;8335;42.646;23.380;2023-06-26T04:45:01;14.25;;;12.73;;
8279;SDS011;8335;42.646;23.380;2023-06-26T04:47:28;14.43;;;12.90;;
8279;SDS011;8335;42.646;23.380;2023-06-26T04:49:56;19.42;;;13.50;;
8279;SDS011;8335;42.646;23.380;2023-06-26T04:52:23;15.43;;;13.15;;
8279;SDS011;8335;42.646;23.380;2023-06-26T04:54:50;16.83;;;13.68;;
8279;SDS011;8335;42.646;23.380;2023-06-26T04:57:16;19.08;;;13.60;;
8279;SDS011;8335;42.646;23.380;2023-06-26T04:59:43;15.32;;;13.65;;
8279;SDS011;8335;42.646;23.380;2023-06-26T05:02:10;16.98;;;13.63;;
8279;SDS011;8335;42.646;23.380;2023-06-26T05:04:39;16.92;;;14.55;;
8279;SDS011;8335;42.646;23.380;2023-06-26T05:07:08;18.30;;;14.40;;
8279;SDS011;8335;42.646;23.380;2023-06-26T05:09:35;18.13;;;15.15;;
8279;SDS011;8335;42.646;23.380;2023-06-26T05:12:02;18.40;;;14.90;;
8279;SDS011;8335;42.646;23.380;2023-06-26T05:14:29;17.73;;;14.90;;
8279;SDS011;8335;42.646;23.380;2023-06-26T05:16:56;16.70;;;15.00;;
8279;SDS011;8335;42.646;23.380;2023-06-26T05:19:23;23.48;;;15.05;;
8279;SDS011;8335;42.646;23.380;2023-06-26T05:21:50;20.42;;;14.32;;
8279;SDS011;8335;42.646;23.380;2023-06-26T05:24:19;16.20;;;14.10;;
8279;SDS011;8335;42.646;23.380;2023-06-26T05:26:47;16.00;;;14.35;;
8279;SDS011;8335;42.646;23.380;2023-06-26T05:29:14;18.00;;;13.93;;
8279;SDS011;8335;42.646;23.380;2023-06-26T05:31:42;17.02;;;14.52;;
8279;SDS011;8335;42.646;23.380;2023-06-26T05:34:11;18.38;;;15.00;;
8279;SDS011;8335;42.646;23.380;2023-06-26T05:36:40;20.60;;;14.38;;
8279;SDS011;8335;42.646;23.380;2023-06-26T05:39:08;20.27;;;15.07;;
8279;SDS011;8335;42.646;23.380;2023-06-26T05:41:37;17.17;;;15.38;;
8279;SDS011;8335;42.646;23.380;2023-06-26T05:44:04;14.57;;;12.63;;
8279;SDS011;8335;42.646;23.380;2023-06-26T05:46:31;15.93;;;13.93;;
8279;SDS011;8335;42.646;23.380;2023-06-26T05:48:58;17.10;;;14.68;;
8279;SDS011;8335;42.646;23.380;2023-06-26T05:51:26;15.65;;;13.52;;
8279;SDS011;8335;42.646;23.380;2023-06-26T05:53:53;15.90;;;13.15;;
8279;SDS011;8335;42.646;23.380;2023-06-26T05:56:20;16.20;;;13.30;;
8279;SDS011;8335;42.646;23.380;2023-06-26T05:58:49;17.58;;;12.90;;
8279;SDS011;8335;42.646;23.380;2023-06-26T06:01:16;18.25;;;13.55;;
8279;SDS011;8335;42.646;23.380;2023-06-26T06:03:44;16.63;;;12.60;;
8279;SDS011;8335;42.646;23.380;2023-06-26T06:06:10;16.05;;;12.77;;
8279;SDS011;8335;42.646;23.380;2023-06-26T06:08:37;16.02;;;13.05;;
8279;SDS011;8335;42.646;23.380;2023-06-26T06:11:04;15.63;;;12.52;;
8279;SDS011;8335;42.646;23.380;2023-06-26T06:13:31;17.58;;;13.55;;
8279;SDS011;8335;42.646;23.380;2023-06-26T06:15:59;16.05;;;13.02;;
8279;SDS011;8335;42.646;23.380;2023-06-26T06:18:26;16.40;;;12.88;;
8279;SDS011;8335;42.646;23.380;2023-06-26T06:20:53;14.57;;;11.93;;
8279;SDS011;8335;42.646;23.380;2023-06-26T06:23:19;14.63;;;11.95;;
8279;SDS011;8335;42.646;23.380;2023-06-26T06:25:47;15.85;;;11.82;;
8279;SDS011;8335;42.646;23.380;2023-06-26T06:28:13;15.07;;;12.27;;
8279;SDS011;8335;42.646;23.380;2023-06-26T06:30:41;13.63;;;11.88;;
8279;SDS011;8335;42.646;23.380;2023-06-26T06:33:10;19.60;;;12.55;;
8279;SDS011;8335;42.646;23.380;2023-06-26T06:35:36;16.88;;;12.07;;
8279;SDS011;8335;42.646;23.380;2023-06-26T06:38:03;15.60;;;12.07;;
8279;SDS011;8335;42.646;23.380;2023-06-26T06:40:30;18.83;;;11.80;;
8279;SDS011;8335;42.646;23.380;2023-06-26T06:42:57;15.77;;;11.35;;
8279;SDS011;8335;42.646;23.380;2023-06-26T06:45:24;17.67;;;11.80;;
8279;SDS011;8335;42.646;23.380;2023-06-26T06:47:50;13.98;;;11.20;;
8279;SDS011;8335;42.646;23.380;2023-06-26T06:50:18;13.80;;;10.85;;
8279;SDS011;8335;42.646;23.380;2023-06-26T06:52:45;16.48;;;11.07;;
8279;SDS011;8335;42.646;23.380;2023-06-26T06:55:12;14.18;;;10.05;;
8279;SDS011;8335;42.646;23.380;2023-06-26T06:57:39;12.35;;;9.25;;
8279;SDS011;8335;42.646;23.380;2023-06-26T07:00:07;14.75;;;9.80;;
8279;SDS011;8335;42.646;23.380;2023-06-26T07:02:35;10.80;;;9.38;;
8279;SDS011;8335;42.646;23.380;2023-06-26T07:05:02;12.48;;;9.30;;
8279;SDS011;8335;42.646;23.380;2023-06-26T07:07:31;10.77;;;9.43;;
8279;SDS011;8335;42.646;23.380;2023-06-26T07:09:59;9.02;;;8.13;;
8279;SDS011;8335;42.646;23.380;2023-06-26T07:12:26;9.18;;;8.27;;
8279;SDS011;8335;42.646;23.380;2023-06-26T07:14:53;10.05;;;7.40;;
8279;SDS011;8335;42.646;23.380;2023-06-26T07:17:21;7.80;;;6.75;;
8279;SDS011;8335;42.646;23.380;2023-06-26T07:19:48;11.75;;;7.38;;
8279;SDS011;8335;42.646;23.380;2023-06-26T07:22:15;8.85;;;6.53;;
8279;SDS011;8335;42.646;23.380;2023-06-26T07:24:45;9.98;;;6.70;;
8279;SDS011;8335;42.646;23.380;2023-06-26T07:27:12;10.02;;;7.03;;
8279;SDS011;8335;42.646;23.380;2023-06-26T07:29:39;9.18;;;6.72;;
8279;SDS011;8335;42.646;23.380;2023-06-26T07:32:06;8.57;;;7.05;;
8279;SDS011;8335;42.646;23.380;2023-06-26T07:34:33;8.30;;;7.03;;
8279;SDS011;8335;42.646;23.380;2023-06-26T07:37:00;8.30;;;7.13;;
8279;SDS011;8335;42.646;23.380;2023-06-26T07:39:27;9.30;;;7.18;;
8279;SDS011;8335;42.646;23.380;2023-06-26T07:41:55;9.23;;;6.95;;
8279;SDS011;8335;42.646;23.380;2023-06-26T07:44:23;9.23;;;6.43;;
8279;SDS011;8335;42.646;23.380;2023-06-26T07:46:50;9.35;;;6.57;;
8279;SDS011;8335;42.646;23.380;2023-06-26T07:49:17;8.45;;;6.70;;
8279;SDS011;8335;42.646;23.380;2023-06-26T07:51:44;10.43;;;6.60;;
8279;SDS011;8335;42.646;23.380;2023-06-26T07:54:10;9.00;;;6.25;;
8279;SDS011;8335;42.646;23.380;2023-06-26T07:56:51;9.68;;;5.97;;
8279;SDS011;8335;42.646;23.380;2023-06-26T07:59:20;8.10;;;6.32;;
8279;SDS011;8335;42.646;23.380;2023-06-26T08:01:48;7.22;;;5.97;;
8279;SDS011;8335;42.646;23.380;2023-06-26T08:04:15;7.70;;;5.85;;
8279;SDS011;8335;42.646;23.380;2023-06-26T08:06:43;6.22;;;5.63;;
8279;SDS011;8335;42.646;23.380;2023-06-26T08:09:10;8.45;;;5.18;;
8279;SDS011;8335;42.646;23.380;2023-06-26T08:11:37;7.88;;;5.18;;
8279;SDS011;8335;42.646;23.380;2023-06-26T08:14:04;8.57;;;5.45;;
8279;SDS011;8335;42.646;23.380;2023-06-26T08:16:32;5.75;;;5.13;;
8279;SDS011;8335;42.646;23.380;2023-06-26T08:18:59;7.93;;;5.70;;
8279;SDS011;8335;42.646;23.380;2023-06-26T08:21:26;11.65;;;5.53;;
8279;SDS011;8335;42.646;23.380;2023-06-26T08:23:53;5.88;;;5.07;;
8279;SDS011;8335;42.646;23.380;2023-06-26T08:26:19;5.82;;;4.80;;
8279;SDS011;8335;42.646;23.380;2023-06-26T08:28:46;5.55;;;4.50;;
8279;SDS011;8335;42.646;23.380;2023-06-26T08:31:13;6.88;;;4.78;;
8279;SDS011;8335;42.646;23.380;2023-06-26T08:33:41;8.75;;;4.82;;
8279;SDS011;8335;42.646;23.380;2023-06-26T08:36:08;7.22;;;4.72;;
8279;SDS011;8335;42.646;23.380;2023-06-26T08:38:35;6.57;;;4.90;;
8279;SDS011;8335;42.646;23.380;2023-06-26T08:41:02;7.97;;;5.03;;
8279;SDS011;8335;42.646;23.380;2023-06-26T08:43:28;8.63;;;5.45;;
8279;SDS011;8335;42.646;23.380;2023-06-26T08:45:55;4.97;;;4.47;;
8279;SDS011;8335;42.646;23.380;2023-06-26T08:48:22;10.02;;;5.22;;
8279;SDS011;8335;42.646;23.380;2023-06-26T08:50:52;6.88;;;5.18;;
8279;SDS011;8335;42.646;23.380;2023-06-26T08:53:21;11.05;;;6.97;;
8279;SDS011;8335;42.646;23.380;2023-06-26T08:55:55;12.85;;;6.10;;
8279;SDS011;8335;42.646;23.380;2023-06-26T08:58:24;12.60;;;5.47;;
8279;SDS011;8335;42.646;23.380;2023-06-26T09:00:51;6.63;;;5.03;;
8279;SDS011;8335;42.646;23.380;2023-06-26T09:03:21;6.22;;;5.03;;
8279;SDS011;8335;42.646;23.380;2023-06-26T09:05:48;7.30;;;5.10;;
8279;SDS011;8335;42.646;23.380;2023-06-26T09:08:16;8.82;;;5.22;;
8279;SDS011;8335;42.646;23.380;2023-06-26T09:10:42;16.58;;;4.53;;
8279;SDS011;8335;42.646;23.380;2023-06-26T09:13:09;6.95;;;4.80;;
8279;SDS011;8335;42.646;23.380;2023-06-26T09:15:37;10.25;;;5.78;;
8279;SDS011;8335;42.646;23.380;2023-06-26T09:18:05;5.28;;;4.78;;
8279;SDS011;8335;42.646;23.380;2023-06-26T09:20:32;7.43;;;4.85;;
8279;SDS011;8335;42.646;23.380;2023-06-26T09:23:00;8.98;;;5.90;;
8279;SDS011;8335;42.646;23.380;2023-06-26T09:25:28;7.90;;;5.22;;
8279;SDS011;8335;42.646;23.380;2023-06-26T09:27:56;9.27;;;4.63;;
8279;SDS011;8335;42.646;23.380;2023-06-26T09:30:23;7.25;;;5.20;;
8279;SDS011;8335;42.646;23.380;2023-06-26T09:32:51;6.57;;;4.85;;
8279;SDS011;8335;42.646;23.380;2023-06-26T09:35:19;5.97;;;4.85;;
8279;SDS011;8335;42.646;23.380;2023-06-26T09:37:46;4.97;;;4.47;;
8279;SDS011;8335;42.646;23.380;2023-06-26T09:40:13;12.70;;;4.70;;
8279;SDS011;8335;42.646;23.380;2023-06-26T09:42:43;11.90;;;4.40;;
8279;SDS011;8335;42.646;23.380;2023-06-26T09:45:16;11.07;;;6.72;;
8279;SDS011;8335;42.646;23.380;2023-06-26T09:47:44;12.23;;;5.72;;
8279;SDS011;8335;42.646;23.380;2023-06-26T09:50:20;6.63;;;5.13;;
8279;SDS011;8335;42.646;23.380;2023-06-26T09:52:47;5.32;;;4.80;;
8279;SDS011;8335;42.646;23.380;2023-06-26T09:55:16;8.07;;;4.53;;
8279;SDS011;8335;42.646;23.380;2023-06-26T09:57:48;6.80;;;4.78;;
8279;SDS011;8335;42.646;23.380;2023-06-26T10:00:16;5.72;;;5.07;;
8279;SDS011;8335;42.646;23.380;2023-06-26T10:02:44;7.38;;;5.43;;
8279;SDS011;8335;42.646;23.380;2023-06-26T10:05:12;8.70;;;5.43;;
8279;SDS011;8335;42.646;23.380;2023-06-26T10:07:39;14.73;;;5.53;;
8279;SDS011;8335;42.646;23.380;2023-06-26T10:10:07;11.00;;;5.75;;
8279;SDS011;8335;42.646;23.380;2023-06-26T10:12:36;10.77;;;5.55;;
8279;SDS011;8335;42.646;23.380;2023-06-26T10:15:05;9.82;;;5.90;;
8279;SDS011;8335;42.646;23.380;2023-06-26T10:17:37;8.77;;;5.55;;
8279;SDS011;8335;42.646;23.380;2023-06-26T10:20:08;6.32;;;5.72;;
8279;SDS011;8335;42.646;23.380;2023-06-26T10:22:37;7.93;;;6.10;;
8279;SDS011;8335;42.646;23.380;2023-06-26T10:25:08;7.93;;;5.72;;
8279;SDS011;8335;42.646;23.380;2023-06-26T10:27:38;10.45;;;6.35;;
8279;SDS011;8335;42.646;23.380;2023-06-26T10:30:13;12.38;;;7.13;;
8279;SDS011;8335;42.646;23.380;2023-06-26T10:32:42;8.73;;;6.63;;
8279;SDS011;8335;42.646;23.380;2023-06-26T10:35:11;12.95;;;6.68;;
8279;SDS011;8335;42.646;23.380;2023-06-26T10:37:41;8.55;;;6.00;;
8279;SDS011;8335;42.646;23.380;2023-06-26T10:40:10;9.75;;;6.22;;
8279;SDS011;8335;42.646;23.380;2023-06-26T10:42:37;8.27;;;6.00;;
8279;SDS011;8335;42.646;23.380;2023-06-26T10:45:08;10.80;;;6.25;;
8279;SDS011;8335;42.646;23.380;2023-06-26T10:47:39;7.72;;;6.00;;
8279;SDS011;8335;42.646;23.380;2023-06-26T10:50:16;9.65;;;6.10;;
8279;SDS011;8335;42.646;23.380;2023-06-26T10:52:44;8.55;;;5.72;;
8279;SDS011;8335;42.646;23.380;2023-06-26T10:55:10;8.18;;;5.85;;
8279;SDS011;8335;42.646;23.380;2023-06-26T10:57:39;11.32;;;5.80;;
8279;SDS011;8335;42.646;23.380;2023-06-26T11:00:13;9.80;;;6.03;;
8279;SDS011;8335;42.646;23.380;2023-06-26T11:02:49;8.60;;;5.75;;
8279;SDS011;8335;42.646;23.380;2023-06-26T11:05:26;8.27;;;5.82;;
8279;SDS011;8335;42.646;23.380;2023-06-26T11:08:02;7.43;;;5.68;;
8279;SDS011;8335;42.646;23.380;2023-06-26T11:10:30;7.35;;;6.13;;
8279;SDS011;8335;42.646;23.380;2023-06-26T11:13:15;12.07;;;7.35;;
8279;SDS011;8335;42.646;23.380;2023-06-26T11:15:44;9.93;;;6.10;;
8279;SDS011;8335;42.646;23.380;2023-06-26T11:18:13;7.95;;;6.13;;
8279;SDS011;8335;42.646;23.380;2023-06-26T11:20:40;19.73;;;6.65;;
8279;SDS011;8335;42.646;23.380;2023-06-26T11:23:07;55.70;;;9.32;;
8279;SDS011;8335;42.646;23.380;2023-06-26T11:25:35;37.72;;;7.78;;
8279;SDS011;8335;42.646;23.380;2023-06-26T11:28:02;65.78;;;8.88;;
8279;SDS011;8335;42.646;23.380;2023-06-26T11:30:30;25.77;;;6.47;;
8279;SDS011;8335;42.646;23.380;2023-06-26T11:33:04;9.45;;;6.32;;
8279;SDS011;8335;42.646;23.380;2023-06-26T11:35:32;7.32;;;6.18;;
8279;SDS011;8335;42.646;23.380;2023-06-26T11:37:59;8.43;;;6.10;;
8279;SDS011;8335;42.646;23.380;2023-06-26T11:40:30;10.30;;;6.03;;
8279;SDS011;8335;42.646;23.380;2023-06-26T11:42:57;9.68;;;5.75;;
8279;SDS011;8335;42.646;23.380;2023-06-26T11:45:25;11.50;;;5.68;;
8279;SDS011;8335;42.646;23.380;2023-06-26T11:47:54;13.55;;;5.72;;
8279;SDS011;8335;42.646;23.380;2023-06-26T11:50:22;8.82;;;5.75;;
8279;SDS011;8335;42.646;23.380;2023-06-26T11:52:54;7.85;;;5.50;;
8279;SDS011;8335;42.646;23.380;2023-06-26T11:55:22;5.75;;;5.10;;
8279;SDS011;8335;42.646;23.380;2023-06-26T11:57:49;6.70;;;5.32;;
8279;SDS011;8335;42.646;23.380;2023-06-26T12:00:16;6.68;;;5.70;;
8279;SDS011;8335;42.646;23.380;2023-06-26T12:02:44;7.43;;;5.70;;
8279;SDS011;8335;42.646;23.380;2023-06-26T12:05:12;6.28;;;5.13;;
8279;SDS011;8335;42.646;23.380;2023-06-26T12:07:39;8.82;;;5.55;;
8279;SDS011;8335;42.646;23.380;2023-06-26T12:10:08;7.53;;;5.47;;
8279;SDS011;8335;42.646;23.380;2023-06-26T12:12:37;8.07;;;5.60;;
8279;SDS011;8335;42.646;23.380;2023-06-26T12:15:05;9.35;;;5.00;;
8279;SDS011;8335;42.646;23.380;2023-06-26T12:17:36;7.03;;;6.20;;
8279;SDS011;8335;42.646;23.380;2023-06-26T12:20:05;8.88;;;6.05;;
8279;SDS011;8335;42.646;23.380;2023-06-26T12:22:43;9.68;;;6.22;;
8279;SDS011;8335;42.646;23.380;2023-06-26T12:25:14;6.30;;;5.47;;
8279;SDS011;8335;42.646;23.380;2023-06-26T12:27:44;8.00;;;5.60;;
8279;SDS011;8335;42.646;23.380;2023-06-26T12:30:11;5.93;;;5.32;;
8279;SDS011;8335;42.646;23.380;2023-06-26T12:32:38;12.13;;;5.63;;
8279;SDS011;8335;42.646;23.380;2023-06-26T12:35:06;8.18;;;5.82;;
8279;SDS011;8335;42.646;23.380;2023-06-26T12:37:36;8.88;;;5.32;;
8279;SDS011;8335;42.646;23.380;2023-06-26T12:40:03;8.88;;;5.22;;
8279;SDS011;8335;42.646;23.380;2023-06-26T12:42:34;7.30;;;5.30;;
8279;SDS011;8335;42.646;23.380;2023-06-26T12:45:09;12.50;;;6.00;;
8279;SDS011;8335;42.646;23.380;2023-06-26T12:47:37;8.15;;;5.78;;
8279;SDS011;8335;42.646;23.380;2023-06-26T12:50:06;7.68;;;4.95;;
8279;SDS011;8335;42.646;23.380;2023-06-26T12:52:34;7.68;;;5.22;;
8279;SDS011;8335;42.646;23.380;2023-06-26T12:55:01;6.07;;;4.65;;
8279;SDS011;8335;42.646;23.380;2023-06-26T12:57:27;5.97;;;5.00;;
8279;SDS011;8335;42.646;23.380;2023-06-26T12:59:56;7.82;;;5.68;;
8279;SDS011;8335;42.646;23.380;2023-06-26T13:02:24;8.80;;;5.38;;
8279;SDS011;8335;42.646;23.380;2023-06-26T13:04:51;10.95;;;6.65;;
8279;SDS011;8335;42.646;23.380;2023-06-26T13:07:18;7.03;;;6.20;;
8279;SDS011;8335;42.646;23.380;2023-06-26T13:09:44;7.60;;;6.80;;
8279;SDS011;8335;42.646;23.380;2023-06-26T13:12:13;12.30;;;6.35;;
8279;SDS011;8335;42.646;23.380;2023-06-26T13:14:40;7.35;;;5.53;;
8279;SDS011;8335;42.646;23.380;2023-06-26T13:17:08;10.43;;;6.50;;
8279;SDS011;8335;42.646;23.380;2023-06-26T13:19:35;6.70;;;6.03;;
8279;SDS011;8335;42.646;23.380;2023-06-26T13:22:01;9.38;;;6.13;;
8279;SDS011;8335;42.646;23.380;2023-06-26T13:24:28;10.25;;;6.38;;
8279;SDS011;8335;42.646;23.380;2023-06-26T13:26:55;10.98;;;6.68;;
8279;SDS011;8335;42.646;23.380;2023-06-26T13:29:22;7.88;;;6.10;;
8279;SDS011;8335;42.646;23.380;2023-06-26T13:31:48;7.70;;;6.30;;
8279;SDS011;8335;42.646;23.380;2023-06-26T13:34:23;8.65;;;6.57;;
8279;SDS011;8335;42.646;23.380;2023-06-26T13:36:52;7.03;;;5.88;;
8279;SDS011;8335;42.646;23.380;2023-06-26T13:39:19;6.63;;;5.70;;
8279;SDS011;8335;42.646;23.380;2023-06-26T13:41:46;6.07;;;5.47;;
8279;SDS011;8335;42.646;23.380;2023-06-26T13:44:13;12.57;;;6.97;;
8279;SDS011;8335;42.646;23.380;2023-06-26T13:46:40;11.40;;;6.45;;
8279;SDS011;8335;42.646;23.380;2023-06-26T13:49:07;11.50;;;6.13;;
8279;SDS011;8335;42.646;23.380;2023-06-26T13:51:35;6.70;;;5.70;;
8279;SDS011;8335;42.646;23.380;2023-06-26T13:54:03;6.00;;;5.40;;
8279;SDS011;8335;42.646;23.380;2023-06-26T13:56:29;6.85;;;6.15;;
8279;SDS011;8335;42.646;23.380;2023-06-26T13:58:56;12.38;;;6.18;;
8279;SDS011;8335;42.646;23.380;2023-06-26T14:01:23;9.90;;;6.30;;
8279;SDS011;8335;42.646;23.380;2023-06-26T14:03:50;8.43;;;6.05;;
8279;SDS011;8335;42.646;23.380;2023-06-26T14:06:17;11.00;;;6.50;;
8279;SDS011;8335;42.646;23.380;2023-06-26T14:08:45;8.80;;;5.80;;
8279;SDS011;8335;42.646;23.380;2023-06-26T14:11:12;11.60;;;6.25;;
8279;SDS011;8335;42.646;23.380;2023-06-26T14:13:40;6.82;;;5.82;;
8279;SDS011;8335;42.646;23.380;2023-06-26T14:16:07;10.10;;;5.78;;
8279;SDS011;8335;42.646;23.380;2023-06-26T14:18:34;10.68;;;5.93;;
8279;SDS011;8335;42.646;23.380;2023-06-26T14:21:01;10.35;;;6.38;;
8279;SDS011;8335;42.646;23.380;2023-06-26T14:23:29;7.90;;;5.82;;
8279;SDS011;8335;42.646;23.380;2023-06-26T14:25:57;8.38;;;6.10;;
8279;SDS011;8335;42.646;23.380;2023-06-26T14:28:24;8.23;;;5.85;;
8279;SDS011;8335;42.646;23.380;2023-06-26T14:30:50;7.63;;;6.40;;
8279;SDS011;8335;42.646;23.380;2023-06-26T14:33:17;25.45;;;7.47;;
8279;SDS011;8335;42.646;23.380;2023-06-26T14:35:44;10.32;;;6.60;;
8279;SDS011;8335;42.646;23.380;2023-06-26T14:38:10;15.13;;;6.53;;
8279;SDS011;8335;42.646;23.380;2023-06-26T14:40:37;12.10;;;6.93;;
8279;SDS011;8335;42.646;23.380;2023-06-26T14:43:05;8.65;;;6.40;;
8279;SDS011;8335;42.646;23.380;2023-06-26T14:45:32;9.15;;;6.38;;
8279;SDS011;8335;42.646;23.380;2023-06-26T14:47:59;11.48;;;7.38;;
8279;SDS011;8335;42.646;23.380;2023-06-26T14:50:26;7.72;;;6.38;;